createdAt,value
2019-04-04T00:00:47.780Z,39.80
2019-04-04T00:03:21.151Z,42.50
2019-04-04T00:05:55.128Z,44.70
2019-04-04T00:08:30.887Z,46.08
2019-04-04T00:11:01.181Z,42.38
2019-04-04T00:13:33.618Z,47.30
2019-04-04T00:16:05.847Z,44.93
2019-04-04T00:18:38.133Z,46.02
2019-04-04T00:21:10.283Z,41.83
2019-04-04T00:23:42.446Z,41.73
2019-04-04T00:26:14.832Z,44.58
2019-04-04T00:28:47.014Z,42.40
2019-04-04T00:31:19.747Z,41.48
2019-04-04T00:33:53.804Z,45.73
2019-04-04T00:36:25.870Z,40.43
2019-04-04T00:38:58.096Z,43.73
2019-04-04T00:41:30.701Z,39.15
2019-04-04T00:44:03.078Z,42.20
2019-04-04T00:46:35.263Z,43.52
2019-04-04T00:49:07.581Z,39.92
2019-04-04T00:51:39.753Z,39.58
2019-04-04T00:54:13.992Z,37.58
2019-04-04T00:56:46.904Z,37.90
2019-04-04T00:59:22.577Z,37.40
2019-04-04T01:01:52.998Z,35.43
2019-04-04T01:04:25.319Z,37.40
2019-04-04T01:06:57.669Z,35.75
2019-04-04T01:09:30.085Z,38.38
2019-04-04T01:12:02.315Z,38.85
2019-04-04T01:14:34.621Z,42.98
2019-04-04T01:17:06.934Z,41.98
2019-04-04T01:19:39.292Z,34.80
2019-04-04T01:22:11.590Z,33.00
2019-04-04T01:24:43.954Z,40.10
2019-04-04T01:27:16.431Z,33.42
2019-04-04T01:29:48.631Z,31.93
2019-04-04T01:32:21.280Z,31.37
2019-04-04T01:34:53.748Z,36.43
2019-04-04T01:37:27.308Z,38.30
2019-04-04T01:39:59.894Z,60.45
2019-04-04T01:42:33.400Z,54.15
2019-04-04T01:45:07.945Z,28.57
2019-04-04T01:47:40.102Z,27.48
2019-04-04T01:50:12.400Z,30.57
2019-04-04T01:52:45.740Z,21.93
2019-04-04T01:55:18.037Z,22.03
2019-04-04T01:57:50.386Z,26.82
2019-04-04T02:00:22.571Z,26.00
2019-04-04T02:02:54.730Z,24.32
2019-04-04T02:05:27.599Z,28.30
2019-04-04T02:08:00.927Z,24.85
2019-04-04T02:10:34.935Z,25.60
2019-04-04T02:13:09.548Z,39.97
2019-04-04T02:15:42.785Z,31.75
2019-04-04T02:18:15.588Z,27.40
2019-04-04T02:20:48.018Z,26.90
2019-04-04T02:23:20.342Z,24.50
2019-04-04T02:25:52.519Z,21.97
2019-04-04T02:28:24.793Z,22.02
2019-04-04T02:30:57.298Z,23.63
2019-04-04T02:33:32.397Z,21.83
2019-04-04T02:36:03.153Z,24.12
2019-04-04T02:38:35.429Z,26.40
2019-04-04T02:41:08.623Z,22.27
2019-04-04T02:43:41.022Z,22.00
2019-04-04T02:46:13.228Z,23.80
2019-04-04T02:48:45.465Z,23.70
2019-04-04T02:51:17.684Z,25.57
2019-04-04T02:53:52.904Z,21.77
2019-04-04T02:56:23.564Z,21.73
2019-04-04T02:58:55.853Z,20.97
2019-04-04T03:01:31.801Z,22.70
2019-04-04T03:04:02.913Z,23.43
2019-04-04T03:06:35.173Z,19.37
2019-04-04T03:09:10.005Z,18.60
2019-04-04T03:11:41.706Z,23.38
2019-04-04T03:14:14.970Z,19.30
2019-04-04T03:16:47.719Z,41.50
2019-04-04T03:19:19.781Z,19.27
2019-04-04T03:21:54.937Z,19.30
2019-04-04T03:24:25.624Z,19.27
2019-04-04T03:26:57.871Z,19.65
2019-04-04T03:29:30.102Z,19.67
2019-04-04T03:32:02.439Z,18.55
2019-04-04T03:34:34.900Z,20.15
2019-04-04T03:37:10.173Z,21.02
2019-04-04T03:39:40.957Z,19.50
2019-04-04T03:42:13.278Z,22.00
2019-04-04T03:44:45.808Z,18.50
2019-04-04T03:47:18.400Z,17.62
2019-04-04T03:49:50.827Z,21.62
2019-04-04T03:52:23.218Z,21.82
2019-04-04T03:54:56.306Z,19.15
2019-04-04T03:57:29.216Z,18.42
2019-04-04T04:00:05.932Z,15.48
2019-04-04T04:02:35.145Z,16.80
2019-04-04T04:05:14.569Z,17.57
2019-04-04T04:07:45.829Z,19.55
2019-04-04T04:10:18.259Z,17.82
2019-04-04T04:12:50.549Z,17.42
2019-04-04T04:15:22.725Z,17.93
2019-04-04T04:17:55.206Z,16.17
2019-04-04T04:20:27.443Z,15.60
2019-04-04T04:23:00.408Z,16.67
2019-04-04T04:25:35.727Z,18.27
2019-04-04T04:28:06.742Z,19.25
2019-04-04T04:30:40.534Z,17.50
2019-04-04T04:33:12.738Z,19.27
2019-04-04T04:35:45.328Z,19.62
2019-04-04T04:38:18.742Z,19.10
2019-04-04T04:40:51.135Z,15.10
2019-04-04T04:43:23.304Z,14.28
2019-04-04T04:45:55.542Z,18.85
2019-04-04T04:48:30.784Z,15.40
2019-04-04T04:51:01.575Z,16.40
2019-04-04T04:53:33.932Z,15.55
2019-04-04T04:56:06.115Z,15.18
2019-04-04T04:58:41.779Z,14.87
2019-04-04T05:01:11.737Z,15.00
2019-04-04T05:03:44.018Z,14.45
2019-04-04T05:06:16.263Z,17.37
2019-04-04T05:08:48.557Z,14.53
2019-04-04T05:11:20.839Z,14.20
2019-04-04T05:13:52.935Z,14.80
2019-04-04T05:16:25.181Z,14.68
2019-04-04T05:18:58.035Z,14.93
2019-04-04T05:21:33.689Z,14.43
2019-04-04T05:24:04.265Z,14.40
2019-04-04T05:26:38.514Z,15.00
2019-04-04T05:29:13.274Z,15.70
2019-04-04T05:31:43.719Z,14.93
2019-04-04T05:34:16.137Z,15.65
2019-04-04T05:36:48.409Z,16.17
2019-04-04T05:39:20.979Z,14.70
2019-04-04T05:41:53.312Z,14.98
2019-04-04T05:44:25.611Z,15.98
2019-04-04T05:46:57.889Z,14.90
2019-04-04T05:49:30.263Z,14.90
2019-04-04T05:52:02.693Z,15.05
2019-04-04T05:54:37.072Z,16.00
2019-04-04T05:57:10.063Z,14.60
2019-04-04T05:59:42.515Z,14.85
2019-04-04T06:02:15.753Z,15.23
2019-04-04T06:04:50.836Z,24.35
2019-04-04T06:07:22.555Z,22.02
2019-04-04T06:09:55.169Z,17.67
2019-04-04T06:12:27.752Z,16.87
2019-04-04T06:15:00.559Z,17.52
2019-04-04T06:17:33.293Z,15.43
2019-04-04T06:20:08.650Z,17.37
2019-04-04T06:22:40.915Z,15.28
2019-04-04T06:25:13.762Z,20.35
2019-04-04T06:27:45.935Z,14.93
2019-04-04T06:30:20.076Z,17.42
2019-04-04T06:32:51.778Z,14.45
2019-04-04T06:35:24.272Z,27.35
2019-04-04T06:37:56.398Z,16.62
2019-04-04T06:40:30.251Z,15.70
2019-04-04T06:43:03.744Z,27.20
2019-04-04T06:45:35.852Z,20.88
2019-04-04T06:48:08.323Z,17.00
2019-04-04T06:50:42.968Z,18.67
2019-04-04T06:53:14.322Z,17.62
2019-04-04T06:55:46.667Z,20.30
2019-04-04T06:58:18.941Z,15.18
2019-04-04T07:00:51.246Z,21.82
2019-04-04T07:03:26.894Z,16.42
2019-04-04T07:05:57.318Z,13.58
2019-04-04T07:08:29.610Z,14.50
2019-04-04T07:11:03.323Z,14.53
2019-04-04T07:13:42.129Z,19.07
2019-04-04T07:16:09.114Z,14.90
2019-04-04T07:18:43.059Z,15.77
2019-04-04T07:21:19.602Z,14.55
2019-04-04T07:23:49.773Z,15.65
2019-04-04T07:26:22.109Z,14.18
2019-04-04T07:28:54.362Z,18.10
2019-04-04T07:31:26.626Z,15.83
2019-04-04T07:33:58.863Z,13.65
2019-04-04T07:36:31.163Z,16.30
2019-04-04T07:39:03.239Z,13.60
2019-04-04T07:41:35.708Z,14.78
2019-04-04T07:44:09.168Z,12.70
2019-04-04T07:46:45.377Z,11.90
2019-04-04T07:49:15.010Z,14.83
2019-04-04T07:51:47.345Z,12.93
2019-04-04T07:54:20.127Z,15.20
2019-04-04T07:56:52.483Z,16.00
2019-04-04T07:59:24.725Z,19.62
2019-04-04T08:01:56.933Z,13.98
2019-04-04T08:04:29.067Z,13.60
2019-04-04T08:07:01.358Z,14.68
2019-04-04T08:09:33.595Z,17.37
2019-04-04T08:12:05.782Z,18.02
2019-04-04T08:14:38.864Z,16.93
2019-04-04T08:17:11.048Z,20.32
2019-04-04T08:19:43.408Z,14.20
2019-04-04T08:22:15.830Z,13.85
2019-04-04T08:24:48.235Z,15.45
2019-04-04T08:27:21.750Z,14.38
2019-04-04T08:29:54.026Z,17.20
2019-04-04T08:32:27.193Z,16.32
2019-04-04T08:34:59.331Z,16.20
2019-04-04T08:37:31.599Z,13.13
2019-04-04T08:40:03.849Z,13.65
2019-04-04T08:42:36.318Z,14.83
2019-04-04T08:45:09.309Z,15.38
2019-04-04T08:47:41.503Z,15.78
2019-04-04T08:50:13.744Z,20.30
2019-04-04T08:52:46.098Z,15.60
2019-04-04T08:55:18.697Z,15.43
2019-04-04T08:57:51.515Z,16.02
2019-04-04T09:00:23.834Z,18.57
2019-04-04T09:02:56.215Z,14.93
2019-04-04T09:05:28.677Z,14.63
2019-04-04T09:08:00.961Z,16.52
2019-04-04T09:10:33.187Z,15.23
2019-04-04T09:13:05.493Z,18.98
2019-04-04T09:15:38.061Z,16.00
2019-04-04T09:18:10.422Z,20.20
2019-04-04T09:20:42.687Z,17.45
2019-04-04T09:23:14.961Z,15.53
2019-04-04T09:25:47.214Z,20.50
2019-04-04T09:28:20.706Z,16.80
2019-04-04T09:30:52.861Z,16.50
2019-04-04T09:33:25.265Z,24.35
2019-04-04T09:35:57.532Z,17.20
2019-04-04T09:38:29.922Z,18.45
2019-04-04T09:41:02.306Z,17.10
2019-04-04T09:43:34.663Z,15.15
2019-04-04T09:46:06.800Z,17.48
2019-04-04T09:48:38.889Z,19.77
2019-04-04T09:51:11.144Z,19.07
2019-04-04T09:53:52.974Z,17.35
2019-04-04T09:56:17.187Z,17.20
2019-04-04T09:58:49.652Z,16.32
2019-04-04T10:01:21.898Z,27.80
2019-04-04T10:03:54.263Z,20.35
2019-04-04T10:06:26.485Z,20.80
2019-04-04T10:08:58.761Z,22.62
2019-04-04T10:11:31.019Z,15.13
2019-04-04T10:14:04.272Z,16.27
2019-04-04T10:16:36.664Z,15.18
2019-04-04T10:19:09.121Z,18.92
2019-04-04T10:21:41.361Z,15.18
2019-04-04T10:24:13.655Z,19.25
2019-04-04T10:26:47.680Z,15.98
2019-04-04T10:29:20.234Z,20.65
2019-04-04T10:31:52.596Z,15.20
2019-04-04T10:34:24.804Z,14.93
2019-04-04T10:36:56.983Z,16.37
2019-04-04T10:39:32.622Z,16.48
2019-04-04T10:42:02.888Z,15.67
2019-04-04T10:44:37.086Z,22.42
2019-04-04T10:47:08.852Z,22.60
2019-04-04T10:49:41.220Z,15.95
2019-04-04T10:52:13.490Z,19.60
2019-04-04T10:54:45.871Z,15.43
2019-04-04T10:57:18.369Z,16.20
2019-04-04T10:59:54.435Z,16.87
2019-04-04T11:02:24.504Z,18.73
2019-04-04T11:04:56.693Z,16.12
2019-04-04T11:07:32.877Z,25.15
2019-04-04T11:10:07.605Z,21.50
2019-04-04T11:12:39.937Z,20.35
2019-04-04T11:15:12.235Z,17.45
2019-04-04T11:17:44.375Z,17.12
2019-04-04T11:20:16.553Z,22.58
2019-04-04T11:22:48.786Z,19.80
2019-04-04T11:25:21.088Z,22.85
2019-04-04T11:27:53.233Z,30.52
2019-04-04T11:30:25.582Z,24.47
2019-04-04T11:32:57.886Z,23.95
2019-04-04T11:35:30.603Z,30.12
2019-04-04T11:38:03.966Z,30.75
2019-04-04T11:40:36.355Z,49.98
2019-04-04T11:43:08.516Z,25.23
2019-04-04T11:45:40.810Z,25.62
2019-04-04T11:48:13.086Z,43.30
2019-04-04T11:50:45.732Z,43.25
2019-04-04T11:53:18.059Z,57.58
2019-04-04T11:55:50.348Z,50.38
2019-04-04T11:58:22.848Z,79.87
2019-04-04T12:00:56.786Z,78.95
2019-04-04T12:03:29.051Z,101.45
2019-04-04T12:06:01.354Z,78.50
2019-04-04T12:08:33.724Z,72.75
2019-04-04T12:11:06.031Z,73.90
2019-04-04T12:13:38.287Z,53.35
2019-04-04T12:16:10.705Z,44.50
2019-04-04T12:18:43.203Z,55.70
2019-04-04T12:21:15.662Z,79.58
2019-04-04T12:23:48.044Z,65.37
2019-04-04T12:26:20.326Z,82.08
2019-04-04T12:28:52.788Z,72.55
2019-04-04T12:31:25.235Z,66.02
2019-04-04T12:33:57.606Z,72.97
2019-04-04T12:36:29.872Z,65.42
2019-04-04T12:39:02.121Z,71.03
2019-04-04T12:41:35.645Z,48.63
2019-04-04T12:44:08.035Z,45.20
2019-04-04T12:46:42.377Z,41.23
2019-04-04T12:49:13.990Z,35.20
2019-04-04T12:51:46.377Z,44.03
2019-04-04T12:54:18.754Z,49.13
2019-04-04T12:56:50.966Z,46.42
2019-04-04T12:59:23.699Z,67.57
2019-04-04T13:01:55.929Z,54.48
2019-04-04T13:04:31.788Z,48.98
2019-04-04T13:07:01.625Z,50.37
2019-04-04T13:09:33.996Z,43.98
2019-04-04T13:12:06.502Z,49.83
2019-04-04T13:14:38.791Z,44.48
2019-04-04T13:17:10.973Z,49.67
2019-04-04T13:19:43.129Z,37.63
2019-04-04T13:22:15.421Z,50.83
2019-04-04T13:24:47.649Z,48.00
2019-04-04T13:27:20.200Z,47.00
2019-04-04T13:29:52.630Z,49.50
2019-04-04T13:32:25.007Z,49.03
2019-04-04T13:34:59.444Z,65.57
2019-04-04T13:37:30.773Z,59.40
2019-04-04T13:40:03.179Z,55.48
2019-04-04T13:42:35.393Z,55.78
2019-04-04T13:45:08.439Z,50.85
2019-04-04T13:47:40.779Z,49.17
2019-04-04T13:50:13.122Z,49.27
2019-04-04T13:52:45.546Z,48.13
2019-04-04T13:55:17.776Z,46.68
2019-04-04T13:57:50.697Z,46.48
2019-04-04T14:00:23.636Z,48.70
2019-04-04T14:02:56.301Z,54.58
2019-04-04T14:05:29.246Z,44.15
2019-04-04T14:08:01.521Z,45.07
2019-04-04T14:10:33.931Z,43.87
2019-04-04T14:13:06.221Z,51.02
2019-04-04T14:15:38.528Z,45.83
2019-04-04T14:18:13.873Z,51.85
2019-04-04T14:20:46.140Z,47.58
2019-04-04T14:23:22.005Z,50.52
2019-04-04T14:25:55.125Z,52.20
2019-04-04T14:28:29.263Z,43.17
2019-04-04T14:31:01.943Z,44.15
2019-04-04T14:33:34.557Z,51.60
2019-04-04T14:36:06.722Z,48.58
2019-04-04T14:38:39.055Z,55.05
2019-04-04T14:41:11.902Z,70.85
2019-04-04T14:43:44.109Z,459.40
2019-04-04T14:46:16.418Z,658.80
2019-04-04T14:48:48.700Z,268.35
2019-04-04T14:51:20.960Z,101.90
2019-04-04T14:53:53.157Z,141.90
2019-04-04T14:56:26.208Z,73.83
2019-04-04T14:58:58.497Z,51.92
2019-04-04T15:01:31.143Z,58.23
2019-04-04T15:04:03.731Z,57.20
2019-04-04T15:06:36.067Z,53.40
2019-04-04T15:09:09.896Z,62.17
2019-04-04T15:11:42.182Z,59.25
2019-04-04T15:14:14.577Z,59.77
2019-04-04T15:16:46.831Z,51.50
2019-04-04T15:19:19.099Z,43.23
2019-04-04T15:21:52.345Z,55.77
2019-04-04T15:24:24.523Z,73.60
2019-04-04T15:26:57.652Z,57.85
2019-04-04T15:29:29.849Z,51.45
2019-04-04T15:32:02.211Z,50.67
2019-04-04T15:34:34.655Z,51.17
2019-04-04T15:37:06.859Z,50.90
2019-04-04T15:39:39.176Z,52.65
2019-04-04T15:42:11.398Z,55.55
2019-04-04T15:44:43.651Z,60.58
2019-04-04T15:47:15.784Z,50.90
2019-04-04T15:49:48.013Z,58.48
2019-04-04T15:52:20.130Z,48.85
2019-04-04T15:54:52.292Z,56.23
2019-04-04T15:57:24.621Z,47.90
2019-04-04T15:59:57.026Z,54.18
2019-04-04T16:02:29.702Z,51.42
2019-04-04T16:05:02.132Z,60.05
2019-04-04T16:07:35.592Z,48.33
2019-04-04T16:10:09.075Z,61.83
2019-04-04T16:12:41.346Z,61.28
2019-04-04T16:15:13.626Z,48.92
2019-04-04T16:17:45.901Z,53.45
2019-04-04T16:20:18.081Z,56.30
2019-04-04T16:22:50.223Z,48.63
2019-04-04T16:25:22.413Z,45.58
2019-04-04T16:27:54.847Z,43.73
2019-04-04T16:30:27.169Z,53.33
2019-04-04T16:32:59.394Z,45.50
2019-04-04T16:35:31.796Z,43.75
2019-04-04T16:38:04.029Z,43.60
2019-04-04T16:40:36.996Z,51.40
2019-04-04T16:43:09.138Z,48.40
2019-04-04T16:45:41.331Z,42.73
2019-04-04T16:48:13.960Z,53.10
2019-04-04T16:50:46.380Z,39.08
2019-04-04T16:53:18.615Z,43.23
2019-04-04T16:55:51.000Z,41.15
2019-04-04T16:58:23.223Z,43.08
2019-04-04T17:00:55.504Z,45.40
2019-04-04T17:03:28.234Z,40.55
2019-04-04T17:06:01.130Z,41.15
2019-04-04T17:08:33.368Z,40.97
2019-04-04T17:11:05.556Z,41.55
2019-04-04T17:13:37.795Z,41.33
2019-04-04T17:16:10.122Z,37.98
2019-04-04T17:18:42.385Z,45.52
2019-04-04T17:21:14.666Z,40.33
2019-04-04T17:23:46.928Z,38.75
2019-04-04T17:26:19.342Z,61.28
2019-04-04T17:28:51.460Z,53.40
2019-04-04T17:31:24.008Z,52.43
2019-04-04T17:33:56.395Z,41.75
2019-04-04T17:36:28.951Z,40.75
2019-04-04T17:39:01.152Z,40.80
2019-04-04T17:41:34.943Z,41.73
2019-04-04T17:44:07.593Z,41.75
2019-04-04T17:46:40.098Z,42.58
2019-04-04T17:49:12.413Z,50.05
2019-04-04T17:51:44.892Z,45.63
2019-04-04T17:54:17.516Z,51.33
2019-04-04T17:56:50.360Z,46.42
2019-04-04T17:59:22.554Z,38.27
2019-04-04T18:01:55.301Z,38.10
2019-04-04T18:04:27.773Z,38.00
2019-04-04T18:07:00.292Z,43.15
2019-04-04T18:09:32.438Z,62.53
2019-04-04T18:12:04.783Z,46.40
2019-04-04T18:14:37.837Z,47.85
2019-04-04T18:17:10.085Z,43.83
2019-04-04T18:19:42.326Z,46.03
2019-04-04T18:22:14.596Z,49.95
2019-04-04T18:24:46.836Z,45.43
2019-04-04T18:27:19.013Z,45.43
2019-04-04T18:29:51.182Z,41.58
2019-04-04T18:32:23.346Z,41.10
2019-04-04T18:35:08.696Z,43.80
2019-04-04T18:37:41.577Z,52.03
2019-04-04T18:40:14.129Z,49.15
2019-04-04T18:42:53.093Z,58.03
2019-04-04T18:45:19.812Z,52.90
2019-04-04T18:47:52.096Z,51.85
2019-04-04T18:50:24.325Z,48.90
2019-04-04T18:52:56.407Z,45.03
2019-04-04T18:55:28.632Z,41.43
2019-04-04T18:58:01.987Z,43.13
2019-04-04T19:00:34.686Z,50.83
2019-04-04T19:03:07.163Z,42.15
2019-04-04T19:05:39.591Z,44.67
2019-04-04T19:08:11.997Z,39.75
2019-04-04T19:10:44.143Z,43.83
2019-04-04T19:13:16.660Z,44.25
2019-04-04T19:15:48.923Z,40.78
2019-04-04T19:18:21.171Z,41.98
2019-04-04T19:20:53.489Z,42.98
2019-04-04T19:23:25.845Z,47.43
2019-04-04T19:25:58.029Z,38.73
2019-04-04T19:28:30.290Z,46.95
2019-04-04T19:31:02.585Z,42.60
2019-04-04T19:33:35.083Z,44.55
2019-04-04T19:36:07.427Z,45.08
2019-04-04T19:38:39.801Z,44.98
2019-04-04T19:41:12.031Z,49.03
2019-04-04T19:43:44.521Z,73.17
2019-04-04T19:46:16.748Z,69.40
2019-04-04T19:48:49.036Z,64.27
2019-04-04T19:51:21.184Z,58.23
2019-04-04T19:53:53.351Z,43.60
2019-04-04T19:56:25.594Z,46.83
2019-04-04T19:58:57.991Z,41.88
2019-04-04T20:01:29.999Z,46.48
2019-04-04T20:04:02.196Z,43.38
2019-04-04T20:06:34.583Z,40.28
2019-04-04T20:09:08.564Z,39.78
2019-04-04T20:11:40.970Z,49.77
2019-04-04T20:14:13.374Z,54.47
2019-04-04T20:16:45.760Z,52.93
2019-04-04T20:19:18.084Z,46.68
2019-04-04T20:21:50.092Z,113.47
2019-04-04T20:24:22.475Z,137.57
2019-04-04T20:26:55.706Z,50.17
2019-04-04T20:29:28.161Z,44.87
2019-04-04T20:32:01.278Z,46.83
2019-04-04T20:34:33.728Z,53.20
2019-04-04T20:37:06.001Z,44.23
2019-04-04T20:39:39.427Z,44.55
2019-04-04T20:42:11.621Z,44.55
2019-04-04T20:44:43.780Z,45.83
2019-04-04T20:47:15.989Z,47.17
2019-04-04T20:49:48.136Z,44.15
2019-04-04T20:52:20.250Z,46.30
2019-04-04T20:54:52.437Z,52.40
2019-04-04T20:57:24.654Z,48.05
2019-04-04T20:59:56.804Z,48.98
2019-04-04T21:02:28.930Z,53.58
2019-04-04T21:05:01.117Z,52.53
2019-04-04T21:07:33.651Z,47.00
2019-04-04T21:10:08.220Z,47.38
2019-04-04T21:12:40.326Z,47.90
2019-04-04T21:15:12.504Z,50.67
2019-04-04T21:17:44.743Z,48.45
2019-04-04T21:20:16.917Z,42.10
2019-04-04T21:22:49.165Z,45.13
2019-04-04T21:25:21.298Z,48.48
2019-04-04T21:27:53.739Z,46.28
2019-04-04T21:30:25.901Z,51.83
2019-04-04T21:32:58.031Z,58.02
2019-04-04T21:35:30.105Z,62.27
2019-04-04T21:38:02.236Z,59.33
2019-04-04T21:40:34.636Z,64.70
2019-04-04T21:43:06.859Z,65.45
2019-04-04T21:45:39.135Z,61.30
2019-04-04T21:48:11.426Z,72.20
2019-04-04T21:50:43.819Z,65.42
2019-04-04T21:53:16.181Z,66.57
2019-04-04T21:55:48.445Z,67.53
2019-04-04T21:58:20.729Z,68.45
2019-04-04T22:00:53.204Z,66.57
2019-04-04T22:03:25.543Z,65.30
2019-04-04T22:05:57.833Z,67.87
2019-04-04T22:08:31.887Z,70.83
2019-04-04T22:11:04.100Z,63.70
2019-04-04T22:13:36.316Z,58.80
2019-04-04T22:16:08.686Z,62.93
2019-04-04T22:18:40.996Z,63.02
2019-04-04T22:21:13.380Z,70.83
2019-04-04T22:23:45.572Z,61.80
2019-04-04T22:26:17.817Z,64.72
2019-04-04T22:28:50.064Z,61.33
2019-04-04T22:31:22.437Z,60.17
2019-04-04T22:33:54.552Z,59.42
2019-04-04T22:36:26.962Z,59.35
2019-04-04T22:38:59.199Z,61.68
2019-04-04T22:41:32.956Z,58.65
2019-04-04T22:44:05.213Z,60.55
2019-04-04T22:46:38.660Z,62.20
2019-04-04T22:49:11.900Z,59.08
2019-04-04T22:51:44.274Z,55.13
2019-04-04T22:54:16.538Z,54.43
2019-04-04T22:56:48.933Z,56.98
2019-04-04T22:59:21.190Z,58.35
2019-04-04T23:01:53.580Z,60.00
2019-04-04T23:04:25.979Z,61.23
2019-04-04T23:06:58.483Z,58.08
2019-04-04T23:09:32.418Z,62.80
2019-04-04T23:12:04.615Z,69.87
2019-04-04T23:14:47.529Z,59.98
2019-04-04T23:17:10.233Z,56.77
2019-04-04T23:19:42.388Z,58.02
2019-04-04T23:22:14.872Z,57.45
2019-04-04T23:24:47.187Z,61.50
2019-04-04T23:27:19.888Z,63.08
2019-04-04T23:29:52.314Z,58.30
2019-04-04T23:32:24.678Z,61.65
2019-04-04T23:34:57.015Z,60.48
2019-04-04T23:37:29.590Z,63.68
2019-04-04T23:40:01.814Z,61.92
2019-04-04T23:42:34.228Z,57.62
2019-04-04T23:45:08.744Z,60.03
2019-04-04T23:47:42.994Z,60.85
2019-04-04T23:50:14.796Z,60.98
2019-04-04T23:52:46.943Z,63.15
2019-04-04T23:55:19.238Z,59.80
2019-04-04T23:57:53.023Z,61.35
